Terminal Aerodrome Forecast
Issued by NWS

Current Version | Previous Version | Text Only | Print | Product List | Glossary Off
Versions: 1 2 3 4 5 6 7 8 9 10 11 12 13 14 15 16 17 18 19 20 21 22 23

000
FTUS41 KILN 251700
TAFLUK
TAF
KLUK 251730Z 2518/2618 22012G22KT P6SM BKN050
     FM252200 VRB05KT P6SM SCT050
     FM260600 14008KT 4SM -SHRA BR OVC040
     FM260800 11009KT 4SM -SHRA BR VCTS OVC020CB
     FM261300 33012G22KT 4SM -SHRA BR OVC010=

USA.gov is the U.S. government's official web portal to all federal, state and local government web resources and services.